AirNav   $300 off a Bose A20
 
 620 users online  

72FL Gator Airpark
St Cloud, Florida, USA

GOING TO ST CLOUD?


FAA INFORMATION EFFECTIVE 18 JULY 2019

Location

FAA Identifier: 72FL
Lat/Long: 28-09-27.0560N / 081-14-05.2680W
28-09.450933N / 081-14.087800W
28.1575156 / -81.2347967
(estimated)
Elevation: 68 ft. / 21 m (estimated)
Variation: 02W (1990)
From city: 6 miles SE of ST CLOUD, FL
Time zone: UTC -4 (UTC -5 during Standard Time)
Zip code: 33837

Airport Operations

Airport use: Private use. Permission required prior to landing
Activation date: 02/1993
Control tower: no
ARTCC: JACKSONVILLE CENTER
FSS: SAINT PETERSBURG FLIGHT SERVICE STATION
Attendance: UNATNDD
Segmented circle: no

Airport Communications

WX AWOS-3PT at ISM (13 nm NW): 128.775 (407-847-0533)
WX ASOS at MCO (17 nm N): PHONE 407-855-5235

Nearby radio navigation aids

VOR radial/distance  VOR name  Freq  Var
ORLr167/23.7ORLANDO VORTAC112.2000E
MLBr283/31.9MELBOURNE VOR/DME110.0007W

Airport Services

Runway Information

Runway 9/27

Dimensions: 1800 x 200 ft. / 549 x 61 m
Surface: turf
RUNWAY 9  RUNWAY 27
Traffic pattern: leftleft

Airport Ownership and Management from official FAA records

Ownership: Privately-owned
Owner: ALBRITTON AIRSTRIP TRUST
4525 ALBRITTON RD
SAINT CLOUD, FL 34772
Phone 407-892-4546
Manager: ROBERT L. ALBRITTON
4525 ALBRITTON RD
SAINT CLOUD, FL 34772
Phone 407-908-5656

Airport Operational Statistics

Aircraft based on the field: 6
Single engine airplanes: 6
    
Aircraft operations: avg 25/month
100% local general aviation

Additional Remarks

FOR CD CTC JACKSONVILLE ARTCC AT 904-845-1592.

Instrument Procedures

There are no published instrument procedures at 72FL.

Some nearby airports with instrument procedures:

KISM - Kissimmee Gateway Airport (13 nm NW)
KMCO - Orlando International Airport (17 nm N)
KORL - Executive Airport (24 nm N)
X07 - Lake Wales Municipal Airport (26 nm SW)
KGIF - Winter Haven Regional Airport (28 nm W)
 
Loc | Ops | Rwys | IFR | FBO | Links
Com | Nav | Svcs | Stats | Notes

Reliance Aviation
AirBoss

 
Area around 72FL (Gator Airpark)
 
Road maps at: MapQuest Bing Google
 
Aerial photo
No photo
 
Sectional chart

 
Airport distance calculator
Flying to Gator Airpark? Find the distance to fly.

From to 72FL

Sunrise and sunset
Times for 19-Jul-2019
 Local
(UTC-4)
 Zulu
(UTC)
Morning civil twilight06:1510:15
Sunrise06:4110:41
Sunset20:2100:21
Evening civil twilight20:4700:47

Current date and time
Zulu (UTC)  19-Jul-2019 05:13:12
Local (UTC-4)  19-Jul-2019 01:13:12
 
METAR
KISM 
13nm NW 
190456Z AUTO 00000KT 10SM CLR 25/23 A3011 RMK AO2 SLP198 T02500228 403330233 PNO $
KMCO 
16nm N 
190453Z 00000KT 10SM FEW250 24/22 A3010 RMK AO2 SLP191 T02440222 403390239
KORL 
24nm N 
190453Z AUTO 13003KT 10SM CLR 26/22 A3010 RMK AO2 SLP193 T02560222 403390239
KX07 
26nm SW 
190455Z AUTO 00000KT 10SM BKN031 OVC039 23/23 A3012 RMK A01
TAF
KISM 
13nm NW 
182140Z 1822/1918 VRB04KT P6SM FEW050 OVC250 FM190000 17003KT P6SM SCT050 SCT100 BKN250 FM191400 18005KT P6SM SCT035 SCT250
KMCO 
16nm N 
190252Z 1903/2006 VRB02KT P6SM FEW250 FM191400 18005KT P6SM SCT035 FM191900 16008KT P6SM VCTS SCT040CB BKN250 FM200100 VRB02KT P6SM FEW050 SCT100 BKN250
NOTAMs
Click for the latest NOTAMs
NOTAMs are issued by the DoD/FAA and will open in a separate window not controlled by AirNav.

 

 
 

Would you like to see your business listed on this page?

 If your business provides an interesting product or service to pilots, flight crews, aircraft, or users of the Gator Airpark, you should consider listing it here.  To start the listing process, click on the button below
 
Add a business
 

Other Pages about Gator Airpark

Update a link
 
Copyright © AirNav, LLC. All rights reserved. Privacy Policy  Contact